createdAt,value
2023-04-02T00:02:22.981Z,101354.63
2023-04-02T00:05:20.941Z,101367.13
2023-04-02T00:07:51.618Z,101370.66
2023-04-02T00:10:35.192Z,101372.56
2023-04-02T00:13:10.480Z,101373.66
2023-04-02T00:15:38.975Z,101383.47
2023-04-02T00:18:06.667Z,101377.47
2023-04-02T00:20:38.605Z,101378.59
2023-04-02T00:23:06.649Z,101380.50
2023-04-02T00:25:43.248Z,101390.03
2023-04-02T00:28:19.022Z,101386.25
2023-04-02T00:30:48.026Z,101393.63
2023-04-02T00:33:18.450Z,101395.75
2023-04-02T00:35:45.154Z,101409.91
2023-04-02T00:38:32.237Z,101412.06
2023-04-02T00:41:02.788Z,101411.25
2023-04-02T00:43:35.804Z,101420.00
2023-04-02T00:46:14.572Z,101430.06
2023-04-02T00:49:08.889Z,101430.06
2023-04-02T00:51:44.556Z,101434.94
2023-04-02T00:54:15.707Z,101440.72
2023-04-02T00:56:48.783Z,101438.81
2023-04-02T00:59:29.670Z,101443.72
2023-04-02T01:02:14.784Z,101457.88
2023-04-02T01:04:56.951Z,101461.41
2023-04-02T01:07:42.432Z,101467.38
2023-04-02T01:10:23.060Z,101471.75
2023-04-02T01:13:36.289Z,101479.09
2023-04-02T01:16:25.867Z,101482.09
2023-04-02T01:19:13.559Z,101492.72
2023-04-02T01:22:09.487Z,101487.56
2023-04-02T01:24:39.032Z,101495.97
2023-04-02T01:27:16.391Z,101506.31
2023-04-02T01:29:48.578Z,101504.16
2023-04-02T01:32:19.686Z,101506.06
2023-04-02T01:34:48.558Z,101502.53
2023-04-02T01:37:24.024Z,101515.84
2023-04-02T01:40:20.730Z,101509.88
2023-04-02T01:43:22.182Z,101513.69
2023-04-02T01:45:49.634Z,101525.66
2023-04-02T01:48:24.577Z,101518.56
2023-04-02T01:50:54.877Z,101533.81
2023-04-02T01:53:24.351Z,101534.91
2023-04-02T01:55:53.994Z,101540.34
2023-04-02T01:58:27.434Z,101543.34
2023-04-02T02:01:21.947Z,101556.44
2023-04-02T02:03:51.779Z,101552.63
2023-04-02T02:06:19.427Z,101563.78
2023-04-02T02:08:53.242Z,101568.41
2023-04-02T02:11:23.108Z,101568.94
2023-04-02T02:13:58.991Z,101575.47
2023-04-02T02:16:31.779Z,101578.47
2023-04-02T02:19:02.921Z,101574.66
2023-04-02T02:21:48.352Z,101593.69
2023-04-02T02:24:21.692Z,101595.03
2023-04-02T02:26:55.284Z,101601.28
2023-04-02T02:29:26.298Z,101601.84
2023-04-02T02:31:55.833Z,101602.94
2023-04-02T02:34:29.741Z,101605.66
2023-04-02T02:37:06.960Z,101613.53
2023-04-02T02:39:39.152Z,101614.88
2023-04-02T02:42:22.553Z,101622.50
2023-04-02T02:44:51.943Z,101621.41
2023-04-02T02:47:36.756Z,101627.06
2023-04-02T02:50:10.355Z,101629.50
2023-04-02T02:52:39.258Z,101641.50
2023-04-02T02:55:14.739Z,101652.88
2023-04-02T02:58:06.913Z,101649.63
2023-04-02T03:00:42.302Z,101662.41
2023-04-02T03:03:21.865Z,101674.63
2023-04-02T03:06:03.224Z,101675.72
2023-04-02T03:08:37.045Z,101678.16
2023-04-02T03:11:11.733Z,101682.75
2023-04-02T03:13:42.802Z,101692.00
2023-04-02T03:16:34.880Z,101693.59
2023-04-02T03:19:16.327Z,101708.31
2023-04-02T03:21:48.632Z,101701.75
2023-04-02T03:24:45.890Z,101702.84
2023-04-02T03:27:20.506Z,101713.97
2023-04-02T03:30:23.071Z,101724.28
2023-04-02T03:32:54.418Z,101723.47
2023-04-02T03:35:35.466Z,101734.59
2023-04-02T03:38:18.065Z,101749.22
2023-04-02T03:41:03.529Z,101748.13
2023-04-02T03:43:40.746Z,101758.16
2023-04-02T03:46:32.298Z,101760.63
2023-04-02T03:49:12.488Z,101770.38
2023-04-02T03:52:05.199Z,101769.03
2023-04-02T03:54:33.155Z,101773.94
2023-04-02T03:57:00.943Z,101787.22
2023-04-02T03:59:42.653Z,101786.41
2023-04-02T04:02:33.448Z,101791.03
2023-04-02T04:05:03.562Z,101800.81
2023-04-02T04:07:38.457Z,101797.56
2023-04-02T04:10:07.733Z,101810.31
2023-04-02T04:12:43.509Z,101812.47
2023-04-02T04:15:21.350Z,101825.50
2023-04-02T04:18:10.359Z,101822.75
2023-04-02T04:20:57.261Z,101836.78
2023-04-02T04:23:37.541Z,101836.50
2023-04-02T04:26:21.053Z,101838.03
2023-04-02T04:29:15.520Z,101855.16
2023-04-02T04:31:55.691Z,101856.78
2023-04-02T04:34:46.909Z,101859.75
2023-04-02T04:37:21.667Z,101869.78
2023-04-02T04:39:56.321Z,101871.66
2023-04-02T04:42:29.153Z,101877.31
2023-04-02T04:45:16.821Z,101889.19
2023-04-02T04:48:08.166Z,101885.91
2023-04-02T04:50:42.594Z,101895.16
2023-04-02T04:53:17.238Z,101898.97
2023-04-02T04:55:47.725Z,101898.41
2023-04-02T04:58:35.944Z,101920.41
2023-04-02T05:01:10.509Z,101921.50
2023-04-02T05:03:58.405Z,101927.16
2023-04-02T05:06:41.138Z,101928.75
2023-04-02T05:09:41.402Z,101938.63
2023-04-02T05:12:37.896Z,101945.25
2023-04-02T05:15:33.968Z,101953.31
2023-04-02T05:18:27.510Z,101948.09
2023-04-02T05:21:07.090Z,101965.81
2023-04-02T05:23:40.201Z,101974.13
2023-04-02T05:26:18.915Z,101976.84
2023-04-02T05:29:05.786Z,101983.41
2023-04-02T05:31:54.374Z,101999.13
2023-04-02T05:34:29.936Z,102001.44
2023-04-02T05:36:58.572Z,102001.94
2023-04-02T05:39:27.263Z,102016.06
2023-04-02T05:42:06.424Z,102027.31
2023-04-02T05:45:05.049Z,102021.22
2023-04-02T05:47:33.597Z,102023.69
2023-04-02T05:50:05.836Z,102033.13
2023-04-02T05:52:43.126Z,102042.75
2023-04-02T05:55:12.624Z,102048.16
2023-04-02T05:58:35.461Z,102059.56
2023-04-02T06:01:30.897Z,102060.13
2023-04-02T06:04:16.159Z,102073.63
2023-04-02T06:06:47.263Z,102076.72
2023-04-02T06:09:28.853Z,102088.84
2023-04-02T06:12:44.532Z,102092.28
2023-04-02T06:15:19.027Z,102112.41
2023-04-02T06:17:51.374Z,102119.94
2023-04-02T06:20:20.924Z,102115.13
2023-04-02T06:22:52.828Z,102138.41
2023-04-02T06:25:40.516Z,102139.25
2023-04-02T06:28:17.122Z,102133.94
2023-04-02T06:30:55.114Z,102140.75
2023-04-02T06:33:22.082Z,102138.63
2023-04-02T06:35:53.346Z,102153.81
2023-04-02T06:38:30.658Z,102158.66
2023-04-02T06:41:00.838Z,102163.41
2023-04-02T06:43:49.506Z,102162.59
2023-04-02T06:46:34.431Z,102169.97
2023-04-02T06:49:23.749Z,102165.59
2023-04-02T06:51:56.840Z,102173.84
2023-04-02T06:54:24.672Z,102183.69
2023-04-02T06:56:57.334Z,102185.91
2023-04-02T06:59:27.985Z,102187.31
2023-04-02T07:02:00.862Z,102197.91
2023-04-02T07:04:35.499Z,102198.97
2023-04-02T07:07:02.929Z,102203.56
2023-04-02T07:09:33.664Z,102216.88
2023-04-02T07:12:10.806Z,102226.56
2023-04-02T07:14:40.011Z,102234.09
2023-04-02T07:17:07.830Z,102236.81
2023-04-02T07:19:34.385Z,102248.09
2023-04-02T07:22:00.858Z,102242.44
2023-04-02T07:24:33.128Z,102250.09
2023-04-02T07:26:59.645Z,102254.69
2023-04-02T07:29:26.267Z,102256.44
2023-04-02T07:31:53.886Z,102265.63
2023-04-02T07:34:22.597Z,102272.25
2023-04-02T07:40:40.980Z,102285.78
2023-04-02T07:43:08.478Z,102287.69
2023-04-02T07:48:42.040Z,102296.72
2023-04-02T07:52:10.362Z,102296.72
2023-04-02T07:54:46.124Z,102300.03
2023-04-02T07:57:39.004Z,102308.75
2023-04-02T08:05:37.006Z,102311.22
2023-04-02T08:08:09.177Z,102307.09
2023-04-02T08:10:36.036Z,102317.13
2023-04-02T08:13:09.201Z,102325.00
2023-04-02T08:15:35.967Z,102326.19
2023-04-02T08:18:12.364Z,102328.31
2023-04-02T08:20:42.191Z,102342.19
2023-04-02T08:23:31.961Z,102333.25
2023-04-02T08:25:58.489Z,102349.34
2023-04-02T08:28:28.749Z,102347.31
2023-04-02T08:30:55.565Z,102357.09
2023-04-02T08:33:22.187Z,102369.25
2023-04-02T08:35:50.687Z,102364.06
2023-04-02T08:38:49.535Z,102378.19
2023-04-02T08:41:24.032Z,102379.25
2023-04-02T08:47:41.023Z,102385.38
2023-04-02T08:50:29.066Z,102393.03
2023-04-02T08:53:01.638Z,102392.56
2023-04-02T08:55:53.123Z,102406.88
2023-04-02T08:58:44.190Z,102412.78
2023-04-02T09:01:24.453Z,102420.53
2023-04-02T09:03:54.679Z,102425.97
2023-04-02T09:06:23.066Z,102423.97
2023-04-02T09:09:01.285Z,102431.41
2023-04-02T09:11:57.174Z,102435.16
2023-04-02T09:14:36.006Z,102436.44
2023-04-02T09:17:16.880Z,102439.50
2023-04-02T09:19:52.833Z,102443.03
2023-04-02T09:22:32.224Z,102439.69
2023-04-02T09:25:04.290Z,102446.03
2023-04-02T09:27:33.650Z,102457.47
2023-04-02T09:30:18.729Z,102475.13
2023-04-02T09:32:52.523Z,102467.25
2023-04-02T09:35:30.540Z,102471.84
2023-04-02T09:38:07.471Z,102478.19
2023-04-02T09:41:19.312Z,102481.22
2023-04-02T09:46:31.619Z,102486.72
2023-04-02T09:49:01.472Z,102482.75
2023-04-02T09:51:34.345Z,102487.72
2023-04-02T09:54:03.753Z,102481.25
2023-04-02T09:59:22.982Z,102472.44
2023-04-02T10:02:22.227Z,102485.31
2023-04-02T10:05:39.864Z,102492.66
2023-04-02T10:08:30.044Z,102491.44
2023-04-02T10:11:52.518Z,102502.47
2023-04-02T10:23:31.490Z,102508.00
2023-04-02T10:26:30.089Z,102505.41
2023-04-02T10:29:26.370Z,102503.28
2023-04-02T10:32:29.673Z,102503.41
2023-04-02T10:35:27.646Z,102502.19
2023-04-02T10:45:32.956Z,102512.72
2023-04-02T10:53:19.861Z,102523.19
2023-04-02T10:56:04.096Z,102517.75
2023-04-02T10:58:49.233Z,102512.50
2023-04-02T11:01:28.829Z,102518.97
2023-04-02T11:04:28.697Z,102525.09
2023-04-02T11:07:13.319Z,102530.88
2023-04-02T11:09:47.865Z,102537.59
2023-04-02T11:12:42.202Z,102536.66
2023-04-02T11:15:19.156Z,102546.16
2023-04-02T11:17:47.197Z,102532.75
2023-04-02T11:20:43.930Z,102549.75
2023-04-02T11:23:13.715Z,102535.28
2023-04-02T11:25:43.511Z,102541.84
2023-04-02T11:28:35.891Z,102544.00
2023-04-02T11:31:05.304Z,102557.03
2023-04-02T11:33:38.429Z,102553.97
2023-04-02T11:36:44.469Z,102568.47
2023-04-02T11:39:17.344Z,102575.75
2023-04-02T11:42:26.637Z,102565.81
2023-04-02T11:44:54.710Z,102573.16
2023-04-02T11:47:26.304Z,102565.19
2023-04-02T11:49:56.078Z,102570.72
2023-04-02T11:52:31.526Z,102582.44
2023-04-02T11:55:03.230Z,102585.72
2023-04-02T11:58:20.590Z,102582.81
2023-04-02T12:01:02.305Z,102585.66
2023-04-02T12:03:53.593Z,102591.78
2023-04-02T12:06:54.237Z,102593.22
2023-04-02T12:09:49.697Z,102588.56
2023-04-02T12:12:31.486Z,102599.88
2023-04-02T12:14:58.715Z,102590.03
2023-04-02T12:17:38.894Z,102600.47
2023-04-02T12:20:09.438Z,102616.66
2023-04-02T12:22:47.329Z,102609.47
2023-04-02T12:25:32.712Z,102609.59
2023-04-02T12:28:19.957Z,102618.16
2023-04-02T12:30:48.186Z,102608.13
2023-04-02T12:33:27.731Z,102625.56
2023-04-02T12:36:02.529Z,102623.81
2023-04-02T12:38:53.728Z,102616.50
2023-04-02T12:41:27.365Z,102614.97
2023-04-02T12:44:02.169Z,102618.09
2023-04-02T12:46:30.648Z,102621.38
2023-04-02T12:49:43.524Z,102619.22
2023-04-02T12:52:21.319Z,102632.28
2023-04-02T12:54:59.578Z,102627.47
2023-04-02T12:57:26.192Z,102632.72
2023-04-02T12:59:58.351Z,102632.88
2023-04-02T13:02:27.991Z,102636.75
2023-04-02T13:05:01.432Z,102633.44
2023-04-02T13:07:33.405Z,102632.13
2023-04-02T13:10:05.430Z,102631.22
2023-04-02T13:12:36.107Z,102641.94
2023-04-02T13:15:05.767Z,102639.31
2023-04-02T13:17:39.973Z,102641.00
2023-04-02T13:20:38.538Z,102646.88
2023-04-02T13:23:29.676Z,102643.69
2023-04-02T13:25:58.919Z,102636.47
2023-04-02T13:28:26.606Z,102645.06
2023-04-02T13:30:53.221Z,102646.59
2023-04-02T13:33:20.463Z,102641.91
2023-04-02T13:35:48.295Z,102646.31
2023-04-02T13:38:14.745Z,102648.75
2023-04-02T13:40:41.378Z,102650.88
2023-04-02T13:43:11.824Z,102647.91
2023-04-02T13:45:40.939Z,102643.84
2023-04-02T13:48:14.104Z,102652.69
2023-04-02T13:50:41.313Z,102654.28
2023-04-02T13:53:13.642Z,102658.94
2023-04-02T13:55:42.771Z,102653.84
2023-04-02T13:58:10.862Z,102668.50
2023-04-02T14:00:37.883Z,102673.94
2023-04-02T14:03:11.338Z,102677.50
2023-04-02T14:05:42.535Z,102674.56
2023-04-02T14:08:10.959Z,102672.94
2023-04-02T14:10:54.260Z,102675.41
2023-04-02T14:13:37.119Z,102682.81
2023-04-02T14:16:31.309Z,102678.66
2023-04-02T14:19:28.063Z,102673.94
2023-04-02T14:22:30.517Z,102677.75
2023-04-02T14:25:36.584Z,102686.88
2023-04-02T14:28:40.306Z,102683.81
2023-04-02T14:31:34.155Z,102687.91
2023-04-02T14:34:22.416Z,102681.59
2023-04-02T14:37:04.380Z,102691.28
2023-04-02T14:39:57.535Z,102697.06
2023-04-02T14:42:46.227Z,102683.84
2023-04-02T14:45:28.422Z,102688.28
2023-04-02T14:48:02.429Z,102695.69
2023-04-02T14:50:42.746Z,102705.59
2023-04-02T14:53:34.719Z,102711.66
2023-04-02T14:56:08.004Z,102715.22
2023-04-02T14:58:39.062Z,102706.44
2023-04-02T15:01:13.949Z,102715.47
2023-04-02T15:03:51.788Z,102706.19
2023-04-02T15:06:26.218Z,102707.00
2023-04-02T15:09:09.814Z,102709.78
2023-04-02T15:11:39.344Z,102723.53
2023-04-02T15:14:23.510Z,102728.47
2023-04-02T15:16:49.970Z,102730.13
2023-04-02T15:19:18.147Z,102734.53
2023-04-02T15:22:20.389Z,102726.84
2023-04-02T15:24:57.649Z,102728.53
2023-04-02T15:27:27.376Z,102734.00
2023-04-02T15:30:07.373Z,102725.78
2023-04-02T15:32:33.897Z,102731.88
2023-04-02T15:35:23.315Z,102728.84
2023-04-02T15:37:54.170Z,102733.25
2023-04-02T15:40:28.805Z,102733.53
2023-04-02T15:43:20.271Z,102742.84
2023-04-02T15:46:03.764Z,102740.66
2023-04-02T15:48:48.492Z,102745.31
2023-04-02T15:51:36.989Z,102745.34
2023-04-02T15:54:19.541Z,102748.06
2023-04-02T15:57:11.745Z,102739.31
2023-04-02T16:00:09.766Z,102737.94
2023-04-02T16:03:20.820Z,102744.78
2023-04-02T16:06:16.698Z,102729.16
2023-04-02T16:09:08.068Z,102739.56
2023-04-02T16:11:43.780Z,102746.69
2023-04-02T16:14:22.621Z,102756.31
2023-04-02T16:16:52.444Z,102757.66
2023-04-02T16:19:28.183Z,102761.78
2023-04-02T16:22:19.261Z,102764.22
2023-04-02T16:24:49.971Z,102769.97
2023-04-02T16:27:24.111Z,102770.25
2023-04-02T16:30:23.392Z,102763.94
2023-04-02T16:33:01.498Z,102765.88
2023-04-02T16:36:07.092Z,102775.44
2023-04-02T16:38:50.316Z,102784.47
2023-04-02T16:41:28.543Z,102786.09
2023-04-02T16:44:22.806Z,102793.75
2023-04-02T16:47:12.714Z,102794.31
2023-04-02T16:49:57.645Z,102802.28
2023-04-02T16:52:35.933Z,102798.16
2023-04-02T16:55:23.467Z,102813.47
2023-04-02T16:58:18.507Z,102822.50
2023-04-02T17:01:15.591Z,102820.31
2023-04-02T17:03:44.939Z,102822.19
2023-04-02T17:06:29.583Z,102821.09
2023-04-02T17:09:16.424Z,102825.44
2023-04-02T17:11:49.262Z,102833.38
2023-04-02T17:14:29.575Z,102834.47
2023-04-02T17:17:01.491Z,102839.63
2023-04-02T17:19:29.660Z,102843.47
2023-04-02T17:22:04.940Z,102843.19
2023-04-02T17:24:41.981Z,102856.59
2023-04-02T17:27:17.690Z,102856.28
2023-04-02T17:29:47.332Z,102860.09
2023-04-02T17:32:27.313Z,102865.56
2023-04-02T17:34:55.585Z,102866.66
2023-04-02T17:37:39.723Z,102858.66
2023-04-02T17:40:19.174Z,102860.53
2023-04-02T17:43:13.650Z,102872.03
2023-04-02T17:45:47.770Z,102875.56
2023-04-02T17:48:26.729Z,102886.47
2023-04-02T17:50:55.990Z,102891.88
2023-04-02T17:53:37.853Z,102890.25
2023-04-02T17:56:38.476Z,102899.22
2023-04-02T17:59:21.649Z,102899.44
2023-04-02T18:02:04.854Z,102909.78
2023-04-02T18:04:46.578Z,102912.47
2023-04-02T18:07:28.272Z,102916.56
2023-04-02T18:10:39.524Z,102922.47
2023-04-02T18:13:14.933Z,102921.84
2023-04-02T18:16:08.891Z,102928.91
2023-04-02T18:18:46.827Z,102928.06
2023-04-02T18:21:24.529Z,102932.63
2023-04-02T18:24:12.614Z,102940.00
2023-04-02T18:27:21.364Z,102944.84
2023-04-02T18:30:04.273Z,102937.41
2023-04-02T18:32:55.018Z,102944.72
2023-04-02T18:35:34.549Z,102956.66
2023-04-02T18:38:01.671Z,102958.28
2023-04-02T18:40:49.673Z,102958.47
2023-04-02T18:43:36.870Z,102966.84
2023-04-02T18:46:28.249Z,102969.56
2023-04-02T18:49:06.376Z,102965.13
2023-04-02T18:51:38.832Z,102973.00
2023-04-02T18:54:24.010Z,102977.88
2023-04-02T18:56:50.938Z,102976.19
2023-04-02T18:59:44.664Z,102985.38
2023-04-02T19:02:26.124Z,102991.56
2023-04-02T19:05:04.241Z,103003.25
2023-04-02T19:07:36.854Z,103002.09
2023-04-02T19:10:20.887Z,103008.88
2023-04-02T19:12:47.372Z,103009.38
2023-04-02T19:15:20.111Z,103014.75
2023-04-02T19:18:07.757Z,103023.69
2023-04-02T19:21:00.858Z,103032.13
2023-04-02T19:23:59.741Z,103032.63
2023-04-02T19:26:34.926Z,103038.56
2023-04-02T19:29:22.884Z,103040.72
2023-04-02T19:32:05.821Z,103042.53
2023-04-02T19:34:46.145Z,103038.41
2023-04-02T19:37:27.346Z,103048.97
2023-04-02T19:40:19.824Z,103046.97
2023-04-02T19:42:49.225Z,103048.25
2023-04-02T19:45:33.468Z,103045.19
2023-04-02T19:48:09.880Z,103056.56
2023-04-02T19:50:37.021Z,103057.88
2023-04-02T19:53:03.521Z,103059.19
2023-04-02T19:55:30.455Z,103058.03
2023-04-02T19:58:08.489Z,103062.91
2023-04-02T20:00:43.623Z,103070.97
2023-04-02T20:03:10.244Z,103063.03
2023-04-02T20:05:40.300Z,103061.91
2023-04-02T20:08:06.864Z,103063.47
2023-04-02T20:10:35.607Z,103062.28
2023-04-02T20:13:02.854Z,103072.00
2023-04-02T20:15:29.627Z,103067.53
2023-04-02T20:17:56.190Z,103062.22
2023-04-02T20:20:25.608Z,103078.47
2023-04-02T20:22:52.118Z,103078.97
2023-04-02T20:25:18.619Z,103080.50
2023-04-02T20:27:45.844Z,103087.75
2023-04-02T20:30:12.912Z,103086.56
2023-04-02T20:32:40.447Z,103091.91
2023-04-02T20:35:07.832Z,103099.25
2023-04-02T20:37:35.176Z,103098.28
2023-04-02T20:40:01.962Z,103106.94
2023-04-02T20:42:28.683Z,103108.22
2023-04-02T20:44:55.414Z,103103.75
2023-04-02T20:47:24.910Z,103116.75
2023-04-02T20:49:52.189Z,103112.63
2023-04-02T20:52:18.627Z,103127.53
2023-04-02T20:54:46.667Z,103124.44
2023-04-02T20:57:15.617Z,103117.81
2023-04-02T20:59:42.307Z,103121.25
2023-04-02T21:02:11.679Z,103131.78
2023-04-02T21:04:38.270Z,103134.13
2023-04-02T21:07:04.792Z,103135.69
2023-04-02T21:09:32.008Z,103144.09
2023-04-02T21:11:59.269Z,103148.56
2023-04-02T21:14:26.172Z,103146.31
2023-04-02T21:16:52.925Z,103153.28
2023-04-02T21:19:19.329Z,103155.66
2023-04-02T21:21:45.809Z,103149.00
2023-04-02T21:24:12.267Z,103154.09
2023-04-02T21:26:41.187Z,103162.72
2023-04-02T21:29:07.886Z,103157.41
2023-04-02T21:31:37.225Z,103168.50
2023-04-02T21:34:04.971Z,103163.53
2023-04-02T21:36:37.062Z,103166.72
2023-04-02T21:39:06.956Z,103174.03
2023-04-02T21:41:36.353Z,103182.88
2023-04-02T21:44:05.708Z,103173.31
2023-04-02T21:46:36.488Z,103168.56
2023-04-02T21:49:06.352Z,103175.72
2023-04-02T21:51:34.834Z,103177.28
2023-04-02T21:54:01.953Z,103180.47
2023-04-02T21:56:34.414Z,103184.47
2023-04-02T21:59:02.563Z,103177.38
2023-04-02T22:01:34.855Z,103181.00
2023-04-02T22:04:07.273Z,103182.50
2023-04-02T22:06:40.944Z,103181.53
2023-04-02T22:09:11.402Z,103180.47
2023-04-02T22:11:42.943Z,103179.25
2023-04-02T22:14:10.035Z,103176.16
2023-04-02T22:16:37.678Z,103182.09
2023-04-02T22:19:15.623Z,103186.31
2023-04-02T22:21:42.806Z,103188.88
2023-04-02T22:24:16.115Z,103188.50
2023-04-02T22:26:44.224Z,103188.50
2023-04-02T22:29:11.154Z,103188.13
2023-04-02T22:31:38.348Z,103183.34
2023-04-02T22:34:06.107Z,103184.03
2023-04-02T22:36:32.845Z,103182.59
2023-04-02T22:39:00.328Z,103186.03
2023-04-02T22:41:31.902Z,103185.41
2023-04-02T22:44:01.728Z,103186.09
2023-04-02T22:46:29.864Z,103189.47
2023-04-02T22:48:56.949Z,103182.59
2023-04-02T22:51:24.906Z,103196.84
2023-04-02T22:53:54.108Z,103192.47
2023-04-02T22:56:27.515Z,103199.16
2023-04-02T22:58:54.097Z,103196.28
2023-04-02T23:01:33.402Z,103201.72
2023-04-02T23:04:00.531Z,103204.53
2023-04-02T23:06:27.849Z,103202.25
2023-04-02T23:08:54.438Z,103202.69
2023-04-02T23:11:26.282Z,103201.47
2023-04-02T23:13:56.537Z,103200.25
2023-04-02T23:16:24.331Z,103214.03
2023-04-02T23:18:50.969Z,103199.03
2023-04-02T23:21:19.184Z,103210.31
2023-04-02T23:23:46.450Z,103206.16
2023-04-02T23:26:21.110Z,103212.88
2023-04-02T23:28:48.919Z,103205.78
2023-04-02T23:31:20.114Z,103206.69
2023-04-02T23:33:46.847Z,103213.59
2023-04-02T23:36:34.761Z,103213.19
2023-04-02T23:39:11.244Z,103215.91
2023-04-02T23:41:40.083Z,103216.56
2023-04-02T23:44:07.151Z,103213.84
2023-04-02T23:46:33.982Z,103214.28
2023-04-02T23:49:03.737Z,103217.44
2023-04-02T23:51:32.407Z,103214.34
2023-04-02T23:53:59.296Z,103220.19
2023-04-02T23:56:25.953Z,103220.63
2023-04-02T23:58:52.617Z,103220.25
